createdAt,value
2023-03-07T00:00:03.241Z,96.5
2023-03-07T00:15:02.657Z,96.8
2023-03-07T00:30:03.108Z,97.3
2023-03-07T00:45:02.525Z,97.6
2023-03-07T01:00:03.089Z,98.0
2023-03-07T01:15:02.405Z,98.4
2023-03-07T01:30:03.087Z,98.7
2023-03-07T01:45:02.335Z,98.9
2023-03-07T02:00:02.710Z,99.0
2023-03-07T02:15:03.159Z,99.2
2023-03-07T02:30:02.577Z,99.4
2023-03-07T02:45:03.095Z,99.5
2023-03-07T03:00:02.452Z,99.7
2023-03-07T03:15:03.096Z,99.6
2023-03-07T03:30:02.353Z,99.7
2023-03-07T03:45:02.823Z,99.3
2023-03-07T04:00:02.268Z,99.6
2023-03-07T04:15:02.685Z,99.7
2023-03-07T04:30:03.130Z,99.7
2023-03-07T04:45:04.722Z,99.7
2023-03-07T05:00:02.146Z,99.7
2023-03-07T05:15:02.448Z,99.9
2023-03-07T05:30:03.122Z,99.9
2023-03-07T05:45:02.320Z,99.8
2023-03-07T06:00:02.755Z,99.6
2023-03-07T06:15:03.198Z,99.3
2023-03-07T06:30:02.621Z,99.4
2023-03-07T06:45:03.139Z,99.1
2023-03-07T07:00:02.521Z,99.3
2023-03-07T07:15:03.140Z,98.8
2023-03-07T07:30:02.375Z,98.8
2023-03-07T07:45:02.831Z,98.9
2023-03-07T08:00:03.282Z,99.1
2023-03-07T08:15:02.688Z,99.1
2023-03-07T08:30:03.175Z,99.1
2023-03-07T08:45:02.603Z,99.5
2023-03-07T09:00:03.180Z,99.5
2023-03-07T09:15:02.452Z,99.6
2023-03-07T09:30:02.915Z,99.7
2023-03-07T09:45:02.392Z,99.9
2023-03-07T10:00:02.778Z,100.0
2023-03-07T10:15:03.215Z,99.9
2023-03-07T10:30:02.638Z,99.9
2023-03-07T10:45:03.185Z,99.9
2023-03-07T11:00:02.512Z,99.5
2023-03-07T11:15:03.097Z,99.5
2023-03-07T11:30:02.373Z,99.4
2023-03-07T11:45:02.785Z,99.1
2023-03-07T12:00:03.260Z,99.1
2023-03-07T12:15:02.676Z,99.2
2023-03-07T12:30:03.206Z,99.0
2023-03-07T12:45:02.567Z,98.8
2023-03-07T13:00:03.222Z,98.7
2023-03-07T13:15:02.440Z,98.7
2023-03-07T13:30:02.888Z,99.3
2023-03-07T13:45:02.329Z,99.5
2023-03-07T14:00:02.779Z,99.1
2023-03-07T14:15:03.223Z,98.5
2023-03-07T14:30:02.642Z,98.9
2023-03-07T14:45:03.232Z,99.1
2023-03-07T15:00:02.606Z,99.0
2023-03-07T15:15:02.975Z,98.9
2023-03-07T15:30:02.446Z,99.4
2023-03-07T15:45:02.851Z,99.4
2023-03-07T16:00:02.243Z,99.5
2023-03-07T16:15:02.719Z,99.7
2023-03-07T16:30:03.339Z,99.9
2023-03-07T16:45:02.575Z,100.0
2023-03-07T17:00:03.244Z,100.0
2023-03-07T17:15:03.478Z,100.0
2023-03-07T17:30:02.906Z,100.0
2023-03-07T17:45:02.344Z,100.0
2023-03-07T18:00:02.775Z,100.0
2023-03-07T18:15:03.275Z,100.0
2023-03-07T18:30:02.661Z,100.0
2023-03-07T18:45:03.278Z,100.0
2023-03-07T19:00:02.502Z,100.0
2023-03-07T19:15:03.011Z,100.0
2023-03-07T19:30:02.415Z,100.0
2023-03-07T19:45:02.874Z,100.0
2023-03-07T20:00:02.286Z,100.0
2023-03-07T20:15:02.723Z,100.0
2023-03-07T20:30:03.304Z,100.0
2023-03-07T20:45:02.626Z,100.0
2023-03-07T21:00:03.259Z,100.0
2023-03-07T21:15:02.491Z,100.0
2023-03-07T21:30:02.907Z,100.0
2023-03-07T21:45:02.337Z,100.0
2023-03-07T22:00:02.785Z,100.0
2023-03-07T22:15:03.310Z,100.0
2023-03-07T22:30:02.624Z,100.0
2023-03-07T23:00:02.514Z,100.0
2023-03-07T23:15:01.947Z,100.0
2023-03-07T23:30:02.407Z,100.0
2023-03-07T23:45:02.829Z,100.0
